• Join FlightAware (Why Join?)
  • Login
  • US Flag 
08:33AM EDT


 

Airport Tracker/Info


-or-


 

Live Flight TrackerFlight Track Log ✈ UPS1477 ✈ 23-May-2013 ✈ KLCK - KSDF

Flight Track Log - Related Links

Times and Time Zones

All times are in EDT time to prevent confusion due to time zone crossing. See the UPS1477 flight status page for this flight to view local times or setup timezone preferences in your user account.

Time Position Orientation Groundspeed Altitude Reporting Facility
EDT Latitude Longitude Course Direction KTS MPH feet Rate Location/Type
12:02AM 39.8156 -82.9214 117° Southeast 145 167 1,400  Level Indianapolis Center
12:03AM 39.7975 -82.8761 117° Southeast 246 283 3,100 1,920 Climbing Indianapolis Center
12:03AM 39.7747 -82.8778 183° South 255 293 4,000 2,400 Climbing Indianapolis Center
12:04AM 39.7281 -82.9561 232° Southwest 281 323 6,600 3,060 Climbing Indianapolis Center
12:05AM 39.6856 -83.0439 238° Southwest 284 327 10,300 2,640 Climbing Indianapolis Center
12:06AM 39.6417 -83.1383 239° Southwest 300 345 12,100 2,580 Climbing Indianapolis Center
12:07AM 39.5853 -83.2531 237° Southwest 363 418 15,700 3,540 Climbing Indianapolis Center
12:08AM 39.5317 -83.3717 240° Southwest 375 432 19,400 2,100 Climbing Indianapolis Center
12:09AM 39.4731 -83.4944 238° Southwest 388 447 20,000 240 Climbing Indianapolis Center
12:10AM 39.4131 -83.6178 238° Southwest 398 458 20,000  Level Indianapolis Center
12:11AM 39.3542 -83.7406 238° Southwest 399 459 20,000  Level Indianapolis Center
12:12AM 39.2961 -83.8642 239° Southwest 398 458 20,000  Level Indianapolis Center
12:14AM 39.2372 -83.9861 238° Southwest 398 458 20,000  Level Indianapolis Center
12:15AM 39.1775 -84.1069 238° Southwest 396 456 20,000  Level Indianapolis Center
12:16AM 39.1192 -84.2289 238° Southwest 396 456 20,000  Level Indianapolis Center
12:17AM 39.0592 -84.3486 237° Southwest 396 456 20,000  Level Indianapolis Center
12:18AM 39.0003 -84.4700 238° Southwest 396 456 20,000  Level Indianapolis Center
12:19AM 38.9414 -84.5903 238° Southwest 394 453 20,000 -420 Level Indianapolis Center
12:19AM 38.8833 -84.7000 236° Southwest 395 455 19,300 -1,680 Descending Cincinnati TRACON
12:20AM 38.8333 -84.8167 241° Southwest 382 440 17,000 -2,460 Descending Cincinnati TRACON
12:21AM 38.7667 -84.9333 234° Southwest 381 438 14,400 -2,340 Descending Cincinnati TRACON
12:22AM 38.7642 -84.9431 252° West 383 441 14,100 -1,200 Descending Indianapolis Center
12:23AM 38.6803 -85.0292 219° Southwest 387 445 12,900 -1,080 Descending Indianapolis Center
12:24AM 38.5900 -85.1147 217° Southwest 377 434 11,900 -1,080 Descending Indianapolis Center
12:25AM 38.5128 -85.1928 218° Southwest 358 412 10,700 -960 Descending Indianapolis Center
12:26AM 38.4756 -85.2858 243° Southwest 300 345 10,000 -960 Descending Indianapolis Center
12:27AM 38.4386 -85.3728 242° Southwest 282 325 8,800 -1,380 Descending Indianapolis Center
12:28AM 38.4017 -85.4586 241° Southwest 275 316 7,300 -1,380 Descending Indianapolis Center
12:29AM 38.3456 -85.5517 232° Southwest 284 327 6,000 -660 Descending Indianapolis Center
12:30AM 38.2797 -85.6083 214° Southwest 287 330 6,000  Level Indianapolis Center
12:31AM 38.2078 -85.6358 197° South 292 336 6,000 -120 Level Indianapolis Center
12:32AM 38.1403 -85.6094 163° South 263 303 5,800 -780 Descending Indianapolis Center
12:33AM 38.0792 -85.5889 165° South 244 281 4,500 -900 Descending Indianapolis Center
12:34AM 38.0206 -85.5703 166° South 231 266 4,000 -300 Descending Indianapolis Center
12:35AM 37.9614 -85.5506 165° South 223 257 4,000  Level Indianapolis Center
12:36AM 37.9008 -85.5294 165° South 223 257 4,000 -360 Level Indianapolis Center
12:38AM 37.8000 -85.5500 189° South 186 214 3,000 -540 Descending Louisville TRACON